createdAt,value
2023-02-16T00:01:53.715Z,38.20
2023-02-16T00:12:25.714Z,34.00
2023-02-16T00:22:38.717Z,34.70
2023-02-16T00:32:51.683Z,34.40
2023-02-16T00:43:05.738Z,34.90
2023-02-16T00:53:19.733Z,35.00
2023-02-16T01:03:34.737Z,34.90
2023-02-16T01:13:53.769Z,35.10
2023-02-16T01:24:06.746Z,34.30
2023-02-16T01:34:19.734Z,35.30
2023-02-16T01:44:36.760Z,33.90
2023-02-16T01:54:57.794Z,34.00
2023-02-16T02:05:33.796Z,36.30
2023-02-16T02:15:46.819Z,34.80
2023-02-16T02:26:30.810Z,33.20
2023-02-16T02:36:44.789Z,35.60
2023-02-16T02:46:57.907Z,34.10
2023-02-16T02:57:39.834Z,33.70
2023-02-16T03:07:54.825Z,32.50
2023-02-16T03:18:29.817Z,35.30
2023-02-16T03:29:02.815Z,32.60
2023-02-16T03:39:15.805Z,35.80
2023-02-16T03:49:28.848Z,33.90
2023-02-16T03:59:41.837Z,35.50
2023-02-16T04:10:00.865Z,35.40
2023-02-16T04:20:15.842Z,35.10
2023-02-16T04:30:33.949Z,37.50
2023-02-16T04:40:46.873Z,38.30
2023-02-16T04:51:06.878Z,39.20
2023-02-16T05:01:29.908Z,39.90
2023-02-16T05:12:06.892Z,41.30
2023-02-16T05:22:19.890Z,37.40
2023-02-16T05:32:32.888Z,36.60
2023-02-16T05:42:45.891Z,38.50
2023-02-16T05:52:58.927Z,38.00
2023-02-16T06:03:11.925Z,38.00
2023-02-16T06:13:24.942Z,36.00
2023-02-16T06:23:37.947Z,35.40
2023-02-16T06:33:50.935Z,35.40
2023-02-16T06:44:03.943Z,38.30
2023-02-16T06:54:16.949Z,37.80
2023-02-16T07:04:29.974Z,39.00
2023-02-16T07:14:44.146Z,35.70
2023-02-16T07:24:57.005Z,35.90
2023-02-16T07:35:09.940Z,38.90
2023-02-16T07:45:22.998Z,37.40
2023-02-16T07:55:35.966Z,38.10
2023-02-16T08:05:48.997Z,39.10
2023-02-16T08:16:02.179Z,36.70
2023-02-16T08:26:19.047Z,37.20
2023-02-16T08:36:40.094Z,37.40
2023-02-16T08:46:55.076Z,35.50
2023-02-16T08:57:10.002Z,36.20
2023-02-16T09:07:23.021Z,34.60
2023-02-16T09:17:37.033Z,36.10
2023-02-16T09:27:51.086Z,34.30
2023-02-16T09:38:05.035Z,32.90
2023-02-16T09:48:42.063Z,33.50
2023-02-16T09:59:01.030Z,32.60
2023-02-16T10:09:29.074Z,31.70
2023-02-16T10:19:46.079Z,33.00
2023-02-16T10:30:05.114Z,33.90
2023-02-16T10:40:35.097Z,32.90
2023-02-16T10:51:20.102Z,33.20
2023-02-16T11:01:45.104Z,32.55
2023-02-16T11:12:05.129Z,32.30
2023-02-16T11:22:37.108Z,33.20
2023-02-16T11:32:50.138Z,31.80
2023-02-16T11:43:05.099Z,32.50
2023-02-16T11:53:18.137Z,31.00
2023-02-16T12:04:02.170Z,29.90
2023-02-16T12:14:20.156Z,32.70
2023-02-16T12:24:40.177Z,32.80
2023-02-16T12:35:05.162Z,31.40
2023-02-16T12:45:24.159Z,31.10
2023-02-16T12:55:46.201Z,30.30
2023-02-16T13:06:19.177Z,29.50
2023-02-16T13:16:52.237Z,30.30
2023-02-16T13:27:33.221Z,31.80
2023-02-16T13:38:11.209Z,31.40
2023-02-16T13:48:48.205Z,31.70
2023-02-16T13:59:01.224Z,31.00
2023-02-16T14:09:20.213Z,31.30
2023-02-16T14:19:34.203Z,32.30
2023-02-16T14:29:47.274Z,33.30
2023-02-16T14:40:07.766Z,34.70
2023-02-16T14:50:53.279Z,32.30
2023-02-16T15:01:19.282Z,33.80
2023-02-16T15:12:10.248Z,35.80
2023-02-16T15:22:31.308Z,34.65
2023-02-16T15:32:45.269Z,36.20
2023-02-16T15:42:58.317Z,38.40
2023-02-16T15:53:11.292Z,39.50
2023-02-16T16:03:25.325Z,38.20
2023-02-16T16:13:45.274Z,37.10
2023-02-16T16:24:05.366Z,43.20
2023-02-16T16:34:39.309Z,46.00
2023-02-16T16:45:01.389Z,45.00
2023-02-16T16:55:29.298Z,44.40
2023-02-16T17:05:45.496Z,43.60
2023-02-16T17:16:20.354Z,42.00
2023-02-16T17:26:33.527Z,42.40
2023-02-16T17:36:46.364Z,43.50
2023-02-16T17:47:00.623Z,41.80
2023-02-16T17:57:13.346Z,43.50
2023-02-16T18:07:33.641Z,43.90
2023-02-16T18:17:46.356Z,42.80
2023-02-16T18:27:59.685Z,41.60
2023-02-16T18:38:12.400Z,43.60
2023-02-16T18:48:25.686Z,44.20
2023-02-16T18:58:39.398Z,46.90
2023-02-16T19:08:59.680Z,45.50
2023-02-16T19:19:12.414Z,47.30
2023-02-16T19:29:25.691Z,45.60
2023-02-16T19:39:38.447Z,49.60
2023-02-16T19:49:51.643Z,47.60
2023-02-16T20:00:04.430Z,49.20
2023-02-16T20:10:17.676Z,45.60
2023-02-16T20:20:30.474Z,43.70
2023-02-16T20:30:43.684Z,45.20
2023-02-16T20:40:56.528Z,44.50
2023-02-16T20:51:12.664Z,45.10
2023-02-16T21:01:30.498Z,46.60
2023-02-16T21:11:50.525Z,49.40
2023-02-16T21:22:03.467Z,48.90
2023-02-16T21:32:16.535Z,49.70
2023-02-16T21:42:29.499Z,53.50
2023-02-16T21:52:42.552Z,50.20
2023-02-16T22:02:55.547Z,46.60
2023-02-16T22:13:14.524Z,49.50
2023-02-16T22:23:27.568Z,44.70
2023-02-16T22:33:40.558Z,43.40
2023-02-16T22:43:52.536Z,46.45
2023-02-16T22:54:06.565Z,45.10
2023-02-16T23:04:21.606Z,42.30
2023-02-16T23:14:41.612Z,42.00
2023-02-16T23:25:14.569Z,38.40
2023-02-16T23:35:27.592Z,42.30
2023-02-16T23:45:40.559Z,41.80
2023-02-16T23:55:53.609Z,44.70
